Hlavní strana
METAR-TAF:

METAR-TAF

Letiště :

Mezinárodní letiště Inčchon

Soul-Inčchon, Jižní Korea

zeměpisná šířka: 37-28N, zeměpisná délka: 126-27E, výška: 7 m

Aktuální stav počasí

Zpráva byla vytvořena před 24 minutami, v 23:30 UTC
Severovýchodní vítr 8 kt
Teplota 14°C
Vlhkost vzduchu 51%
Tlak 1019 hPa
Viditelnost 10 km a více
Žádná oblačnost pod 1500 m, nevyskytují se cumulonimby.

METAR: RKSI 152330Z 04008KT CAVOK 14/04 Q1019 NOSIG

Čas: 08:54 (23:54 UTC)

Předpověď počasí

Zpráva byla vytvořena před 54 minutami, v 23:00 UTC
Předpověď platná od 16 v 00 UTC do 17 v 06 UTC
Severozápadní vítr 10 kt
Viditelnost 10 km a více
Skoro jasno ve výšce 3000 ft
Oblačno až skoro zataženo ve výšce 18000 ft

TAF: RKSI 152300Z 1600/1706 32010KT 9999 FEW030 BKN180 TX18/1606Z TN09/1621Z TX16/1706Z

Stav a předpovědi počasí z více než 4 000 letišť (zprávy METAR a TAF).

Červené a žluté tečky na mapě představují dostupné meteorologické stanice.

Když kurzor umístíte na tečku, zobrazí se název stanice.

Pak kliknutím zobrazíte stav a předpověď počasí.

Chcete-li změnit mapu, kliknutím na zelené tlačítko se znaménkem +mapu přiblížíte, kliknutím na zelené tlačítko se znaménkem – mapu oddálíte a kliknutím na zelené šipky přejdete na sousední mapy.


METAR-TAF: